Great River, New York
Current Conditions -  °F | °C
As of 1:56 PM on Sunday 23 Nov 2014 (Local Time) from KISP Reporting Station
Broken Clouds Broken Clouds  
Wind Chill: 52°   Ceiling: 25000
Heat Index: 52°   Visibility: 10mi
Dew Point: 26°   Wind: 13mph
Humidity: 37%   Direction: 210°SSW
Pressure: 30.16"   Gusts: NA
Location:  40.72°N, 73.16°W
Report Text: KISP 231856Z 21011KT 10SM SCT090 SCT110 BKN250 11/M03 A3016 RMK AO2 SLP212 T01111033
Loading
Personal Weather Stations






























Interactive Weather Map New forecast layout! Learn more

10-Day Weather Forecast

Advertisements
Track Severe Weather on mobile